createdAt,value
2017-08-27T00:00:12.771Z,98.37
2017-08-27T00:01:18.623Z,98.37
2017-08-27T00:02:24.862Z,98.59
2017-08-27T00:03:30.936Z,98.66
2017-08-27T00:04:37.935Z,98.74
2017-08-27T00:05:47.106Z,98.77
2017-08-27T00:06:53.180Z,98.42
2017-08-27T00:07:59.427Z,98.17
2017-08-27T00:09:04.598Z,98.03
2017-08-27T00:10:11.598Z,97.55
2017-08-27T00:11:18.555Z,97.49
2017-08-27T00:12:24.623Z,97.75
2017-08-27T00:13:31.642Z,97.82
2017-08-27T00:14:38.187Z,97.71
2017-08-27T00:15:44.363Z,97.40
2017-08-27T00:16:51.619Z,97.61
2017-08-27T00:17:57.670Z,97.63
2017-08-27T00:19:03.751Z,97.84
2017-08-27T00:20:10.009Z,97.99
2017-08-27T00:21:17.910Z,97.65
2017-08-27T00:22:24.183Z,98.03
2017-08-27T00:23:31.343Z,98.24
2017-08-27T00:24:37.426Z,98.16
2017-08-27T00:25:44.605Z,97.72
2017-08-27T00:26:50.689Z,97.55
2017-08-27T00:28:02.835Z,97.65
2017-08-27T00:29:10.270Z,97.33
2017-08-27T00:30:17.373Z,97.41
2017-08-27T00:31:24.119Z,97.55
2017-08-27T00:32:30.327Z,97.45
2017-08-27T00:33:36.425Z,97.50
2017-08-27T00:34:42.506Z,97.28
2017-08-27T00:35:48.669Z,97.16
2017-08-27T00:36:55.075Z,97.04
2017-08-27T00:38:01.192Z,96.94
2017-08-27T00:39:07.243Z,97.20
2017-08-27T00:40:13.368Z,97.28
2017-08-27T00:41:19.079Z,97.12
2017-08-27T00:42:26.091Z,97.25
2017-08-27T00:43:33.851Z,97.34
2017-08-27T00:44:39.922Z,97.31
2017-08-27T00:45:46.031Z,97.10
2017-08-27T00:46:52.305Z,97.07
2017-08-27T00:47:57.662Z,97.15
2017-08-27T00:49:03.773Z,97.32
2017-08-27T00:50:10.698Z,97.23
2017-08-27T00:51:17.668Z,97.15
2017-08-27T00:52:23.714Z,97.22
2017-08-27T00:53:30.211Z,97.01
2017-08-27T00:54:36.280Z,96.83
2017-08-27T00:55:42.383Z,96.96
2017-08-27T00:56:48.435Z,97.13
2017-08-27T00:57:56.245Z,96.97
2017-08-27T00:59:03.467Z,97.06
2017-08-27T01:00:10.538Z,97.13
2017-08-27T01:01:16.483Z,97.12
2017-08-27T01:02:22.434Z,97.20
2017-08-27T01:03:29.493Z,97.32
2017-08-27T01:04:35.044Z,97.38
2017-08-27T01:05:40.430Z,97.53
2017-08-27T01:06:45.558Z,97.45
2017-08-27T01:07:51.664Z,97.67
2017-08-27T01:08:58.460Z,97.66
2017-08-27T01:10:05.792Z,97.63
2017-08-27T01:11:12.596Z,97.67
2017-08-27T01:12:19.575Z,97.12
2017-08-27T01:13:27.603Z,97.60
2017-08-27T01:14:33.912Z,97.59
2017-08-27T01:15:40.058Z,97.82
2017-08-27T01:16:46.130Z,98.03
2017-08-27T01:17:55.432Z,97.99
2017-08-27T01:19:02.380Z,98.01
2017-08-27T01:20:08.185Z,98.17
2017-08-27T01:21:13.672Z,97.99
2017-08-27T01:22:19.185Z,98.26
2017-08-27T01:23:25.404Z,98.07
2017-08-27T01:24:30.758Z,98.31
2017-08-27T01:25:36.431Z,98.25
2017-08-27T01:26:44.303Z,98.54
2017-08-27T01:27:52.174Z,98.81
2017-08-27T01:28:58.270Z,98.86
2017-08-27T01:30:04.159Z,98.95
2017-08-27T01:31:11.888Z,99.12
2017-08-27T01:32:18.958Z,99.06
2017-08-27T01:33:25.015Z,99.35
2017-08-27T01:34:31.159Z,99.40
2017-08-27T01:35:37.679Z,99.33
2017-08-27T01:36:43.644Z,99.57
2017-08-27T01:37:49.740Z,99.79
2017-08-27T01:38:56.097Z,99.84
2017-08-27T01:40:03.260Z,99.85
2017-08-27T01:41:09.361Z,99.85
2017-08-27T01:42:15.444Z,100.00
2017-08-27T01:43:21.499Z,100.00
2017-08-27T01:44:29.183Z,99.93
2017-08-27T01:45:36.535Z,100.00
2017-08-27T01:46:44.040Z,100.00
2017-08-27T01:47:51.358Z,100.00
2017-08-27T01:48:57.519Z,100.00
2017-08-27T01:50:03.724Z,100.00
2017-08-27T01:51:09.768Z,100.00
2017-08-27T01:52:17.454Z,100.00
2017-08-27T01:53:24.207Z,100.00
2017-08-27T01:54:30.989Z,100.00
2017-08-27T01:55:37.083Z,100.00
2017-08-27T01:56:43.137Z,100.00
2017-08-27T01:57:51.607Z,100.00
2017-08-27T01:58:57.802Z,100.00
2017-08-27T02:00:03.867Z,100.00
2017-08-27T02:01:10.863Z,100.00
2017-08-27T02:02:18.477Z,100.00
2017-08-27T02:03:25.243Z,100.00
2017-08-27T02:04:31.290Z,100.00
2017-08-27T02:05:37.336Z,100.00
2017-08-27T02:06:44.266Z,100.00
2017-08-27T02:07:50.430Z,100.00
2017-08-27T02:08:57.302Z,100.00
2017-08-27T02:10:04.026Z,100.00
2017-08-27T02:11:10.286Z,100.00
2017-08-27T02:12:16.479Z,100.00
2017-08-27T02:13:23.310Z,100.00
2017-08-27T02:14:30.364Z,100.00
2017-08-27T02:15:36.477Z,100.00
2017-08-27T02:16:42.530Z,100.00
2017-08-27T02:17:48.604Z,100.00
2017-08-27T02:18:54.683Z,100.00
2017-08-27T02:20:00.736Z,100.00
2017-08-27T02:21:06.804Z,100.00
2017-08-27T02:22:12.492Z,100.00
2017-08-27T02:23:18.570Z,100.00
2017-08-27T02:24:24.650Z,100.00
2017-08-27T02:25:30.727Z,100.00
2017-08-27T02:26:36.777Z,100.00
2017-08-27T02:27:42.817Z,100.00
2017-08-27T02:28:48.990Z,100.00
2017-08-27T02:29:55.066Z,100.00
2017-08-27T02:31:01.116Z,100.00
2017-08-27T02:32:07.170Z,100.00
2017-08-27T02:33:13.230Z,100.00
2017-08-27T02:34:19.345Z,100.00
2017-08-27T02:35:25.400Z,100.00
2017-08-27T02:36:31.462Z,100.00
2017-08-27T02:37:37.542Z,100.00
2017-08-27T02:38:43.598Z,100.00
2017-08-27T02:39:49.763Z,100.00
2017-08-27T02:40:55.847Z,100.00
2017-08-27T02:42:01.885Z,100.00
2017-08-27T02:43:07.959Z,100.00
2017-08-27T02:44:14.008Z,100.00
2017-08-27T02:45:20.093Z,100.00
2017-08-27T02:46:26.150Z,100.00
2017-08-27T02:47:32.202Z,100.00
2017-08-27T02:48:38.084Z,100.00
2017-08-27T02:49:44.135Z,100.00
2017-08-27T02:50:50.256Z,100.00
2017-08-27T02:51:56.301Z,100.00
2017-08-27T02:53:02.351Z,100.00
2017-08-27T02:54:08.396Z,100.00
2017-08-27T02:55:15.311Z,100.00
2017-08-27T02:56:21.400Z,100.00
2017-08-27T02:57:27.449Z,100.00
2017-08-27T02:58:34.439Z,100.00
2017-08-27T02:59:41.570Z,100.00
2017-08-27T03:00:47.606Z,100.00
2017-08-27T03:01:54.400Z,100.00
2017-08-27T03:03:00.476Z,100.00
2017-08-27T03:04:06.544Z,100.00
2017-08-27T03:05:12.595Z,100.00
2017-08-27T03:06:18.646Z,100.00
2017-08-27T03:07:24.730Z,100.00
2017-08-27T03:08:30.803Z,100.00
2017-08-27T03:09:36.847Z,100.00
2017-08-27T03:10:42.898Z,100.00
2017-08-27T03:11:49.011Z,100.00
2017-08-27T03:12:55.116Z,100.00
2017-08-27T03:14:02.063Z,100.00
2017-08-27T03:15:08.122Z,100.00
2017-08-27T03:16:14.189Z,100.00
2017-08-27T03:17:20.242Z,100.00
2017-08-27T03:18:26.322Z,100.00
2017-08-27T03:19:32.356Z,100.00
2017-08-27T03:20:38.423Z,99.88
2017-08-27T03:21:44.459Z,99.20
2017-08-27T03:22:50.528Z,98.52
2017-08-27T03:23:56.671Z,98.38
2017-08-27T03:25:02.706Z,98.74
2017-08-27T03:26:08.762Z,98.44
2017-08-27T03:27:14.802Z,97.74
2017-08-27T03:28:21.780Z,97.17
2017-08-27T03:29:27.863Z,97.08
2017-08-27T03:30:33.913Z,96.94
2017-08-27T03:31:39.953Z,96.89
2017-08-27T03:32:46.005Z,97.13
2017-08-27T03:33:52.051Z,96.98
2017-08-27T03:34:58.140Z,96.61
2017-08-27T03:36:04.208Z,96.84
2017-08-27T03:37:10.312Z,96.27
2017-08-27T03:38:16.363Z,95.84
2017-08-27T03:39:22.416Z,95.94
2017-08-27T03:40:28.504Z,95.98
2017-08-27T03:41:35.455Z,96.17
2017-08-27T03:42:41.505Z,96.15
2017-08-27T03:43:47.543Z,96.19
2017-08-27T03:44:53.592Z,96.32
2017-08-27T03:45:59.696Z,96.26
2017-08-27T03:47:05.734Z,96.80
2017-08-27T03:48:11.794Z,96.93
2017-08-27T03:49:17.843Z,97.00
2017-08-27T03:50:23.892Z,96.86
2017-08-27T03:51:29.793Z,96.82
2017-08-27T03:52:35.853Z,96.55
2017-08-27T03:53:41.918Z,95.87
2017-08-27T03:54:47.980Z,95.58
2017-08-27T03:55:53.868Z,95.96
2017-08-27T03:56:59.786Z,95.96
2017-08-27T03:58:05.858Z,96.30
2017-08-27T03:59:11.915Z,96.60
2017-08-27T04:00:17.980Z,96.67
2017-08-27T04:01:24.049Z,96.91
2017-08-27T04:02:30.143Z,97.42
2017-08-27T04:03:36.188Z,97.47
2017-08-27T04:04:42.068Z,97.70
2017-08-27T04:05:48.141Z,97.07
2017-08-27T04:06:54.203Z,97.22
2017-08-27T04:07:59.948Z,96.96
2017-08-27T04:09:05.483Z,97.40
2017-08-27T04:10:11.436Z,97.30
2017-08-27T04:11:18.213Z,97.76
2017-08-27T04:12:24.263Z,98.27
2017-08-27T04:13:30.363Z,98.69
2017-08-27T04:14:36.417Z,99.00
2017-08-27T04:15:43.378Z,98.91
2017-08-27T04:16:49.514Z,98.91
2017-08-27T04:17:55.587Z,98.56
2017-08-27T04:19:01.660Z,98.97
2017-08-27T04:20:07.713Z,98.87
2017-08-27T04:21:13.778Z,99.16
2017-08-27T04:22:19.844Z,99.51
2017-08-27T04:23:25.899Z,99.09
2017-08-27T04:24:32.025Z,98.74
2017-08-27T04:25:37.883Z,98.48
2017-08-27T04:26:44.818Z,98.68
2017-08-27T04:27:50.879Z,98.61
2017-08-27T04:28:56.919Z,98.73
2017-08-27T04:30:02.844Z,99.13
2017-08-27T04:31:08.911Z,99.02
2017-08-27T04:32:14.963Z,99.20
2017-08-27T04:33:21.011Z,99.71
2017-08-27T04:34:27.078Z,99.77
2017-08-27T04:35:33.164Z,99.88
2017-08-27T04:36:42.134Z,99.47
2017-08-27T04:37:50.610Z,99.48
2017-08-27T04:38:59.773Z,99.92
2017-08-27T04:40:08.835Z,100.00
2017-08-27T04:41:17.463Z,100.00
2017-08-27T04:42:23.883Z,100.00
2017-08-27T04:43:31.114Z,100.00
2017-08-27T04:44:38.902Z,100.00
2017-08-27T04:45:47.535Z,99.82
2017-08-27T04:46:56.071Z,99.81
2017-08-27T04:48:03.646Z,99.88
2017-08-27T04:49:10.954Z,99.40
2017-08-27T04:50:18.158Z,99.31
2017-08-27T04:51:24.254Z,98.71
2017-08-27T04:52:31.645Z,97.81
2017-08-27T04:53:38.409Z,97.31
2017-08-27T04:54:44.581Z,98.03
2017-08-27T04:55:52.658Z,98.36
2017-08-27T04:56:59.934Z,99.27
2017-08-27T04:58:07.276Z,99.87
2017-08-27T04:59:14.812Z,99.98
2017-08-27T05:00:21.806Z,99.73
2017-08-27T05:01:29.712Z,99.32
2017-08-27T05:02:36.258Z,99.37
2017-08-27T05:03:43.426Z,99.82
2017-08-27T05:04:50.110Z,99.02
2017-08-27T05:05:57.838Z,98.79
2017-08-27T05:07:04.423Z,98.93
2017-08-27T05:08:10.470Z,98.94
2017-08-27T05:09:16.552Z,98.82
2017-08-27T05:10:22.603Z,98.66
2017-08-27T05:11:28.643Z,98.02
2017-08-27T05:12:34.686Z,97.79
2017-08-27T05:13:40.740Z,97.06
2017-08-27T05:14:46.831Z,96.64
2017-08-27T05:15:52.883Z,96.21
2017-08-27T05:16:59.821Z,96.30
2017-08-27T05:18:05.859Z,95.98
2017-08-27T05:19:11.931Z,96.07
2017-08-27T05:20:18.042Z,96.28
2017-08-27T05:21:24.102Z,95.24
2017-08-27T05:22:30.161Z,94.58
2017-08-27T05:23:36.199Z,94.57
2017-08-27T05:24:42.289Z,94.45
2017-08-27T05:25:48.373Z,94.03
2017-08-27T05:26:54.435Z,93.54
2017-08-27T05:28:00.488Z,93.38
2017-08-27T05:29:07.439Z,93.81
2017-08-27T05:30:13.491Z,93.32
2017-08-27T05:31:19.589Z,93.25
2017-08-27T05:32:25.678Z,93.00
2017-08-27T05:33:31.732Z,92.88
2017-08-27T05:34:37.783Z,93.21
2017-08-27T05:35:43.953Z,93.01
2017-08-27T05:36:50.178Z,92.39
2017-08-27T05:37:56.088Z,91.45
2017-08-27T05:39:01.973Z,91.84
2017-08-27T05:40:08.722Z,90.67
2017-08-27T05:41:14.847Z,90.50
2017-08-27T05:42:20.957Z,89.79
2017-08-27T05:43:27.074Z,89.93
2017-08-27T05:44:33.108Z,89.48
2017-08-27T05:45:39.159Z,89.63
2017-08-27T05:46:46.167Z,89.42
2017-08-27T05:47:52.244Z,88.59
2017-08-27T05:48:59.134Z,88.15
2017-08-27T05:50:05.228Z,88.21
2017-08-27T05:51:11.296Z,87.29
2017-08-27T05:52:18.171Z,87.74
2017-08-27T05:53:24.246Z,86.99
2017-08-27T05:54:30.274Z,87.46
2017-08-27T05:55:38.042Z,86.95
2017-08-27T05:56:44.267Z,87.26
2017-08-27T05:57:51.522Z,87.53
2017-08-27T05:58:57.598Z,88.08
2017-08-27T06:00:03.713Z,87.53
2017-08-27T06:01:09.779Z,87.48
2017-08-27T06:02:17.655Z,86.96
2017-08-27T06:03:23.763Z,87.64
2017-08-27T06:04:29.830Z,87.82
2017-08-27T06:05:37.216Z,87.96
2017-08-27T06:06:44.478Z,88.39
2017-08-27T06:07:56.418Z,88.36
2017-08-27T06:09:05.821Z,88.27
2017-08-27T06:10:13.967Z,87.67
2017-08-27T06:11:21.510Z,87.49
2017-08-27T06:12:30.156Z,87.95
2017-08-27T06:13:37.107Z,87.57
2017-08-27T06:14:45.802Z,87.54
2017-08-27T06:15:55.091Z,87.87
2017-08-27T06:17:01.153Z,85.91
2017-08-27T06:18:07.018Z,87.27
2017-08-27T06:19:13.070Z,87.16
2017-08-27T06:20:19.429Z,86.36
2017-08-27T06:21:26.758Z,86.93
2017-08-27T06:22:32.926Z,87.08
2017-08-27T06:23:39.802Z,86.84
2017-08-27T06:24:45.867Z,87.67
2017-08-27T06:25:52.029Z,87.30
2017-08-27T06:26:58.096Z,87.78
2017-08-27T06:28:04.202Z,87.75
2017-08-27T06:29:13.331Z,87.25
2017-08-27T06:30:19.414Z,86.07
2017-08-27T06:31:25.612Z,85.04
2017-08-27T06:32:32.134Z,85.12
2017-08-27T06:33:38.515Z,84.28
2017-08-27T06:34:45.912Z,84.00
2017-08-27T06:35:53.767Z,83.02
2017-08-27T06:37:03.569Z,82.04
2017-08-27T06:38:13.269Z,83.04
2017-08-27T06:39:21.631Z,81.84
2017-08-27T06:40:31.100Z,80.75
2017-08-27T06:41:41.238Z,81.12
2017-08-27T06:42:49.267Z,80.70
2017-08-27T06:43:56.490Z,79.25
2017-08-27T06:45:03.580Z,78.32
2017-08-27T06:46:09.731Z,77.67
2017-08-27T06:47:15.796Z,78.07
2017-08-27T06:48:22.154Z,77.32
2017-08-27T06:49:28.715Z,77.51
2017-08-27T06:50:35.567Z,76.39
2017-08-27T06:51:43.611Z,76.40
2017-08-27T06:52:53.944Z,76.98
2017-08-27T06:54:02.221Z,76.12
2017-08-27T06:55:09.740Z,77.02
2017-08-27T06:56:16.637Z,76.33
2017-08-27T06:57:27.696Z,75.90
2017-08-27T06:58:33.877Z,73.57
2017-08-27T06:59:41.442Z,73.37
2017-08-27T07:00:50.546Z,74.11
2017-08-27T07:01:58.389Z,74.77
2017-08-27T07:03:07.656Z,74.91
2017-08-27T07:04:15.989Z,73.79
2017-08-27T07:05:25.711Z,72.47
2017-08-27T07:06:33.545Z,72.92
2017-08-27T07:07:42.963Z,72.04
2017-08-27T07:08:50.444Z,72.38
2017-08-27T07:09:57.712Z,72.18
2017-08-27T07:11:05.411Z,71.49
2017-08-27T07:12:11.504Z,70.37
2017-08-27T07:13:17.566Z,70.19
2017-08-27T07:14:27.006Z,68.20
2017-08-27T07:15:36.906Z,69.67
2017-08-27T07:16:44.786Z,69.30
2017-08-27T07:17:54.236Z,70.17
2017-08-27T07:19:02.423Z,69.51
2017-08-27T07:20:09.958Z,70.96
2017-08-27T07:21:16.652Z,70.12
2017-08-27T07:22:24.338Z,69.77
2017-08-27T07:23:32.874Z,69.73
2017-08-27T07:24:40.372Z,68.73
2017-08-27T07:25:47.823Z,69.44
2017-08-27T07:26:54.915Z,68.61
2017-08-27T07:28:03.158Z,67.10
2017-08-27T07:29:11.010Z,68.01
2017-08-27T07:30:20.033Z,68.41
2017-08-27T07:31:27.703Z,67.12
2017-08-27T07:32:35.298Z,66.59
2017-08-27T07:33:43.039Z,66.55
2017-08-27T07:34:50.790Z,67.28
2017-08-27T07:35:56.901Z,66.91
2017-08-27T07:37:03.857Z,66.83
2017-08-27T07:38:13.403Z,66.92
2017-08-27T07:39:23.427Z,67.21
2017-08-27T07:40:33.885Z,67.59
2017-08-27T07:41:44.393Z,68.30
2017-08-27T07:42:53.928Z,67.58
2017-08-27T07:44:03.715Z,67.84
2017-08-27T07:45:12.921Z,67.11
2017-08-27T07:46:23.213Z,68.25
2017-08-27T07:47:34.690Z,68.52
2017-08-27T07:48:43.550Z,66.80
2017-08-27T07:49:51.971Z,66.68
2017-08-27T07:51:00.598Z,67.02
2017-08-27T07:52:10.558Z,67.30
2017-08-27T07:53:20.246Z,66.15
2017-08-27T07:54:29.545Z,67.03
2017-08-27T07:55:37.833Z,67.23
2017-08-27T07:56:47.981Z,67.62
2017-08-27T07:57:57.872Z,67.77
2017-08-27T07:59:08.146Z,66.87
2017-08-27T08:00:17.013Z,67.99
2017-08-27T08:01:23.809Z,68.30
2017-08-27T08:02:31.614Z,67.26
2017-08-27T08:03:40.906Z,66.81
2017-08-27T08:04:50.004Z,67.14
2017-08-27T08:05:59.623Z,66.70
2017-08-27T08:07:08.491Z,66.74
2017-08-27T08:08:18.285Z,66.79
2017-08-27T08:09:27.088Z,65.83
2017-08-27T08:10:34.973Z,67.05
2017-08-27T08:11:42.011Z,66.01
2017-08-27T08:12:50.905Z,66.59
2017-08-27T08:13:59.888Z,66.47
2017-08-27T08:15:08.335Z,66.58
2017-08-27T08:16:15.158Z,65.71
2017-08-27T08:17:24.336Z,65.00
2017-08-27T08:18:32.014Z,66.70
2017-08-27T08:19:39.569Z,65.23
2017-08-27T08:20:47.696Z,66.52
2017-08-27T08:21:55.197Z,66.53
2017-08-27T08:24:10.831Z,65.95
2017-08-27T08:25:19.806Z,65.63
2017-08-27T08:26:29.259Z,66.29
2017-08-27T08:27:37.524Z,66.38
2017-08-27T08:28:45.873Z,66.59
2017-08-27T08:29:55.182Z,66.00
2017-08-27T08:31:01.956Z,66.16
2017-08-27T08:32:08.901Z,65.51
2017-08-27T08:33:19.362Z,65.35
2017-08-27T08:34:26.970Z,65.61
2017-08-27T08:35:35.486Z,65.72
2017-08-27T08:36:42.908Z,65.25
2017-08-27T08:37:49.571Z,65.98
2017-08-27T08:38:57.225Z,66.56
2017-08-27T08:40:05.653Z,66.37
2017-08-27T08:41:15.356Z,65.38
2017-08-27T08:42:24.616Z,65.69
2017-08-27T08:43:32.514Z,65.49
2017-08-27T08:44:42.231Z,65.50
2017-08-27T08:45:50.235Z,64.59
2017-08-27T08:46:58.422Z,65.25
2017-08-27T08:48:07.856Z,64.75
2017-08-27T08:49:15.893Z,63.49
2017-08-27T08:50:21.939Z,63.68
2017-08-27T08:51:27.980Z,63.18
2017-08-27T08:52:34.025Z,61.84
2017-08-27T08:53:44.416Z,63.35
2017-08-27T08:54:54.916Z,63.99
2017-08-27T08:56:03.625Z,63.09
2017-08-27T08:57:13.924Z,63.14
2017-08-27T08:58:23.167Z,63.58
2017-08-27T08:59:30.586Z,62.46
2017-08-27T09:00:36.641Z,61.78
2017-08-27T09:01:42.735Z,62.31
2017-08-27T09:02:48.806Z,62.68
2017-08-27T09:03:54.763Z,62.14
2017-08-27T09:05:00.843Z,61.89
2017-08-27T09:06:06.947Z,62.41
2017-08-27T09:07:13.024Z,62.87
2017-08-27T09:08:19.066Z,63.13
2017-08-27T09:09:25.194Z,62.84
2017-08-27T09:10:31.259Z,62.49
2017-08-27T09:11:37.349Z,63.13
2017-08-27T09:12:43.413Z,62.37
2017-08-27T09:13:50.037Z,61.56
2017-08-27T09:14:56.145Z,61.92
2017-08-27T09:16:02.221Z,64.95
2017-08-27T09:17:08.328Z,62.07
2017-08-27T09:18:14.456Z,63.14
2017-08-27T09:19:20.402Z,61.09
2017-08-27T09:20:26.501Z,61.47
2017-08-27T09:21:33.031Z,62.47
2017-08-27T09:22:39.431Z,63.89
2017-08-27T09:23:45.930Z,61.45
2017-08-27T09:24:51.998Z,62.09
2017-08-27T09:25:58.109Z,62.95
2017-08-27T09:27:04.191Z,61.99
2017-08-27T09:28:10.290Z,61.51
2017-08-27T09:29:17.448Z,60.75
2017-08-27T09:30:23.515Z,61.02
2017-08-27T09:31:29.626Z,61.06
2017-08-27T09:32:35.571Z,61.02
2017-08-27T09:33:44.070Z,61.50
2017-08-27T09:34:50.826Z,59.29
2017-08-27T09:35:56.947Z,60.00
2017-08-27T09:37:03.014Z,59.29
2017-08-27T09:38:09.115Z,59.36
2017-08-27T09:39:15.209Z,59.79
2017-08-27T09:40:21.271Z,59.40
2017-08-27T09:41:27.380Z,58.53
2017-08-27T09:42:33.484Z,59.52
2017-08-27T09:43:39.580Z,60.34
2017-08-27T09:44:45.644Z,59.27
2017-08-27T09:45:51.731Z,59.21
2017-08-27T09:46:57.847Z,58.14
2017-08-27T09:48:03.935Z,58.32
2017-08-27T09:49:10.242Z,58.24
2017-08-27T09:50:17.918Z,58.58
2017-08-27T09:51:23.979Z,57.64
2017-08-27T09:52:30.972Z,57.62
2017-08-27T09:53:37.493Z,58.22
2017-08-27T09:54:43.585Z,57.88
2017-08-27T09:55:51.462Z,58.29
2017-08-27T09:56:57.631Z,57.07
2017-08-27T09:58:03.753Z,56.64
2017-08-27T09:59:09.823Z,58.13
2017-08-27T10:00:15.933Z,56.26
2017-08-27T10:01:24.220Z,56.26
2017-08-27T10:02:30.374Z,56.93
2017-08-27T10:03:36.528Z,57.26
2017-08-27T10:04:42.603Z,57.25
2017-08-27T10:05:48.671Z,55.65
2017-08-27T10:06:54.475Z,55.81
2017-08-27T10:08:00.557Z,56.11
2017-08-27T10:09:06.675Z,56.14
2017-08-27T10:10:12.765Z,58.23
2017-08-27T10:11:18.684Z,56.03
2017-08-27T10:12:30.426Z,56.66
2017-08-27T10:13:36.484Z,54.21
2017-08-27T10:14:42.632Z,56.41
2017-08-27T10:15:48.721Z,55.58
2017-08-27T10:16:55.801Z,56.12
2017-08-27T10:18:02.074Z,56.02
2017-08-27T10:19:08.207Z,55.64
2017-08-27T10:20:21.954Z,56.18
2017-08-27T10:21:28.038Z,55.86
2017-08-27T10:22:34.140Z,54.91
2017-08-27T10:23:40.235Z,55.42
2017-08-27T10:24:46.333Z,56.70
2017-08-27T10:25:52.521Z,56.60
2017-08-27T10:26:58.611Z,54.76
2017-08-27T10:28:05.043Z,53.50
2017-08-27T10:29:11.201Z,55.24
2017-08-27T10:30:17.266Z,55.23
2017-08-27T10:31:23.374Z,54.84
2017-08-27T10:32:29.502Z,54.47
2017-08-27T10:33:35.583Z,55.17
2017-08-27T10:34:42.837Z,55.74
2017-08-27T10:35:48.904Z,57.17
2017-08-27T10:36:55.024Z,53.21
2017-08-27T10:38:01.083Z,52.66
2017-08-27T10:39:07.159Z,53.36
2017-08-27T10:40:13.220Z,52.93
2017-08-27T10:41:19.516Z,53.24
2017-08-27T10:42:26.559Z,53.37
2017-08-27T10:43:32.664Z,54.21
2017-08-27T10:44:39.508Z,54.45
2017-08-27T10:45:45.619Z,53.48
2017-08-27T10:46:51.715Z,55.59
2017-08-27T10:48:00.580Z,53.79
2017-08-27T10:49:08.737Z,52.62
2017-08-27T10:50:15.114Z,52.40
2017-08-27T10:51:21.448Z,52.10
2017-08-27T10:52:28.060Z,52.18
2017-08-27T10:53:34.999Z,53.82
2017-08-27T10:54:41.110Z,52.85
2017-08-27T10:55:47.248Z,52.36
2017-08-27T10:56:58.133Z,53.41
2017-08-27T10:58:05.165Z,52.34
2017-08-27T10:59:11.808Z,53.26
2017-08-27T11:00:19.516Z,52.88
2017-08-27T11:01:27.159Z,54.59
2017-08-27T11:02:33.810Z,52.69
2017-08-27T11:03:39.919Z,52.13
2017-08-27T11:04:46.331Z,53.26
2017-08-27T11:05:52.420Z,53.54
2017-08-27T11:06:59.664Z,52.50
2017-08-27T11:08:09.237Z,51.08
2017-08-27T11:09:18.872Z,52.10
2017-08-27T11:10:29.673Z,52.89
2017-08-27T11:11:45.342Z,53.60
2017-08-27T11:12:58.352Z,53.74
2017-08-27T11:14:31.416Z,52.36
2017-08-27T11:15:57.384Z,54.05
2017-08-27T11:17:10.458Z,53.20
2017-08-27T11:18:24.804Z,51.37
2017-08-27T11:19:33.246Z,51.99
2017-08-27T11:20:42.246Z,51.30
2017-08-27T11:21:49.964Z,51.80
2017-08-27T11:22:58.569Z,52.37
2017-08-27T11:24:12.508Z,52.47
2017-08-27T11:25:19.110Z,54.14
2017-08-27T11:26:25.531Z,53.96
2017-08-27T11:27:32.767Z,53.96
2017-08-27T11:28:38.812Z,54.53
2017-08-27T11:29:44.876Z,53.53
2017-08-27T11:30:51.028Z,54.24
2017-08-27T11:31:57.091Z,54.89
2017-08-27T11:33:03.177Z,54.17
2017-08-27T11:34:09.259Z,53.94
2017-08-27T11:35:15.308Z,53.56
2017-08-27T11:36:23.772Z,52.79
2017-08-27T11:37:32.950Z,52.78
2017-08-27T11:38:42.927Z,53.62
2017-08-27T11:40:00.290Z,52.36
2017-08-27T11:41:13.371Z,53.02
2017-08-27T11:42:23.304Z,52.59
2017-08-27T11:43:32.822Z,52.82
2017-08-27T11:44:42.184Z,51.77
2017-08-27T11:45:51.627Z,53.03
2017-08-27T11:47:00.576Z,53.58
2017-08-27T11:48:08.126Z,53.13
2017-08-27T11:49:17.677Z,50.39
2017-08-27T11:50:26.568Z,50.63
2017-08-27T11:51:36.191Z,51.40
2017-08-27T11:52:45.872Z,52.34
2017-08-27T11:53:55.223Z,53.62
2017-08-27T11:55:04.849Z,52.60
2017-08-27T11:56:13.477Z,53.54
2017-08-27T11:57:21.962Z,54.74
2017-08-27T11:58:31.456Z,54.97
2017-08-27T11:59:41.442Z,55.60
2017-08-27T12:00:50.133Z,53.80
2017-08-27T12:01:58.329Z,53.74
2017-08-27T12:03:08.984Z,53.63
2017-08-27T12:04:18.565Z,53.43
2017-08-27T12:05:26.816Z,55.05
2017-08-27T12:06:38.984Z,52.93
2017-08-27T12:07:49.276Z,55.60
2017-08-27T12:08:58.705Z,55.78
2017-08-27T12:10:08.134Z,55.39
2017-08-27T12:11:15.807Z,57.16
2017-08-27T12:12:23.089Z,55.41
2017-08-27T12:13:32.676Z,55.10
2017-08-27T12:14:44.022Z,54.88
2017-08-27T12:15:53.924Z,55.25
2017-08-27T12:17:02.946Z,55.49
2017-08-27T12:18:11.832Z,55.14
2017-08-27T12:19:20.016Z,55.77
2017-08-27T12:20:28.473Z,54.71
2017-08-27T12:21:38.781Z,55.19
2017-08-27T12:22:47.750Z,55.82
2017-08-27T12:23:54.771Z,56.60
2017-08-27T12:25:00.842Z,55.09
2017-08-27T12:26:06.915Z,54.73
2017-08-27T12:27:14.610Z,55.07
2017-08-27T12:28:20.507Z,55.19
2017-08-27T12:29:26.602Z,55.48
2017-08-27T12:30:33.770Z,54.77
2017-08-27T12:31:41.213Z,54.80
2017-08-27T12:32:48.217Z,54.80
2017-08-27T12:33:54.296Z,54.91
2017-08-27T12:35:02.138Z,54.61
2017-08-27T12:36:08.512Z,55.37
2017-08-27T12:37:14.583Z,56.73
2017-08-27T12:38:20.680Z,57.01
2017-08-27T12:39:26.730Z,55.39
2017-08-27T12:40:32.788Z,55.09
2017-08-27T12:41:38.836Z,55.12
2017-08-27T12:42:44.911Z,54.19
2017-08-27T12:43:51.139Z,54.32
2017-08-27T12:44:57.267Z,54.72
2017-08-27T12:46:03.337Z,53.88
2017-08-27T12:47:09.420Z,54.34
2017-08-27T12:48:15.482Z,54.15
2017-08-27T12:49:21.596Z,55.52
2017-08-27T12:50:27.733Z,54.72
2017-08-27T12:51:33.794Z,53.92
2017-08-27T12:52:40.367Z,53.43
2017-08-27T12:53:46.728Z,53.80
2017-08-27T12:54:53.043Z,53.26
2017-08-27T12:55:59.663Z,52.92
2017-08-27T12:57:05.758Z,53.99
2017-08-27T12:58:11.813Z,53.93
2017-08-27T12:59:17.899Z,53.31
2017-08-27T13:00:23.611Z,52.42
2017-08-27T13:01:29.475Z,51.23
2017-08-27T13:02:35.539Z,51.33
2017-08-27T13:03:43.186Z,51.99
2017-08-27T13:04:51.125Z,52.63
2017-08-27T13:05:58.005Z,54.12
2017-08-27T13:07:04.096Z,54.58
2017-08-27T13:08:10.251Z,54.56
2017-08-27T13:09:16.321Z,54.48
2017-08-27T13:10:22.443Z,53.49
2017-08-27T13:11:28.490Z,54.35
2017-08-27T13:12:35.484Z,52.82
2017-08-27T13:13:41.635Z,54.19
2017-08-27T13:14:47.687Z,53.19
2017-08-27T13:15:53.818Z,54.02
2017-08-27T13:16:59.876Z,53.04
2017-08-27T13:18:06.983Z,52.32
2017-08-27T13:19:13.941Z,49.60
2017-08-27T13:20:19.976Z,51.10
2017-08-27T13:21:26.070Z,50.43
2017-08-27T13:22:33.983Z,52.01
2017-08-27T13:23:40.051Z,49.95
2017-08-27T13:24:46.086Z,52.67
2017-08-27T13:25:52.180Z,51.07
2017-08-27T13:26:59.167Z,50.02
2017-08-27T13:28:06.167Z,50.57
2017-08-27T13:29:12.021Z,50.02
2017-08-27T13:30:18.148Z,50.85
2017-08-27T13:31:24.067Z,50.00
2017-08-27T13:32:30.122Z,51.40
2017-08-27T13:33:36.214Z,50.57
2017-08-27T13:34:42.296Z,51.20
2017-08-27T13:35:49.238Z,49.00
2017-08-27T13:36:55.454Z,47.98
2017-08-27T13:38:01.757Z,48.06
2017-08-27T13:39:07.780Z,48.07
2017-08-27T13:40:13.837Z,47.81
2017-08-27T13:41:19.892Z,45.75
2017-08-27T13:42:25.999Z,45.94
2017-08-27T13:43:33.003Z,45.73
2017-08-27T13:44:39.063Z,46.82
2017-08-27T13:45:45.150Z,47.79
2017-08-27T13:46:51.293Z,47.30
2017-08-27T13:47:58.276Z,46.94
2017-08-27T13:49:04.330Z,46.46
2017-08-27T13:50:11.214Z,48.08
2017-08-27T13:51:18.104Z,48.08
2017-08-27T13:52:24.260Z,46.97
2017-08-27T13:53:32.004Z,47.89
2017-08-27T13:54:39.673Z,48.06
2017-08-27T13:55:45.717Z,48.06
2017-08-27T13:56:52.738Z,47.35
2017-08-27T13:57:58.998Z,47.46
2017-08-27T13:59:05.134Z,48.30
2017-08-27T14:00:12.854Z,47.89
2017-08-27T14:01:18.917Z,48.54
2017-08-27T14:02:24.984Z,48.86
2017-08-27T14:03:31.055Z,49.25
2017-08-27T14:04:37.185Z,49.59
2017-08-27T14:05:43.267Z,50.88
2017-08-27T14:06:49.355Z,50.81
2017-08-27T14:07:55.428Z,50.28
2017-08-27T14:09:01.284Z,50.51
2017-08-27T14:10:08.573Z,48.10
2017-08-27T14:11:14.702Z,48.21
2017-08-27T14:12:20.793Z,47.24
2017-08-27T14:13:26.908Z,48.03
2017-08-27T14:14:32.965Z,49.81
2017-08-27T14:15:39.438Z,49.71
2017-08-27T14:16:45.510Z,48.97
2017-08-27T14:17:51.583Z,49.29
2017-08-27T14:18:59.270Z,49.30
2017-08-27T14:20:06.175Z,51.69
2017-08-27T14:21:12.946Z,50.25